createdAt,value
2022-07-30T00:00:40.534Z,21.02
2022-07-30T00:05:41.840Z,21.05
2022-07-30T00:10:43.203Z,21.22
2022-07-30T00:15:45.196Z,21.22
2022-07-30T00:20:46.449Z,21.41
2022-07-30T00:25:49.774Z,21.40
2022-07-30T00:30:52.741Z,21.17
2022-07-30T00:35:57.495Z,21.21
2022-07-30T00:40:58.794Z,21.44
2022-07-30T00:46:00.088Z,21.62
2022-07-30T00:51:01.458Z,21.73
2022-07-30T00:56:02.982Z,21.73
2022-07-30T01:01:04.315Z,21.37
2022-07-30T01:06:05.596Z,21.32
2022-07-30T01:16:16.614Z,21.23
2022-07-30T01:21:17.949Z,21.28
2022-07-30T01:26:19.679Z,20.85
2022-07-30T01:31:21.104Z,21.18
2022-07-30T01:36:22.396Z,21.35
2022-07-30T01:41:23.693Z,21.24
2022-07-30T01:46:25.061Z,21.12
2022-07-30T01:51:26.390Z,21.16
2022-07-30T01:56:34.843Z,21.22
2022-07-30T02:01:36.734Z,21.06
2022-07-30T02:06:37.991Z,21.32
2022-07-30T02:11:58.087Z,21.27
2022-07-30T02:17:02.584Z,21.23
2022-07-30T02:22:05.489Z,21.23
2022-07-30T02:27:09.848Z,21.24
2022-07-30T02:32:11.803Z,20.90
2022-07-30T02:37:14.422Z,21.07
2022-07-30T02:42:15.686Z,20.84
2022-07-30T02:47:16.952Z,20.99
2022-07-30T02:52:18.668Z,21.17
2022-07-30T02:57:19.934Z,21.56
2022-07-30T03:02:25.656Z,21.80
2022-07-30T03:07:30.801Z,21.86
2022-07-30T03:12:32.820Z,21.86
2022-07-30T03:17:34.315Z,21.78
2022-07-30T03:22:36.305Z,21.76
2022-07-30T03:27:38.233Z,21.71
2022-07-30T03:32:39.527Z,21.67
2022-07-30T03:37:44.252Z,21.54
2022-07-30T03:42:45.675Z,21.52
2022-07-30T03:47:46.926Z,21.36
2022-07-30T03:52:48.407Z,21.30
2022-07-30T04:02:51.156Z,21.24
2022-07-30T04:07:52.422Z,21.27
2022-07-30T04:12:56.620Z,21.28
2022-07-30T04:17:57.931Z,21.29
2022-07-30T04:22:59.239Z,21.34
2022-07-30T04:28:03.050Z,21.36
2022-07-30T04:33:05.124Z,21.15
2022-07-30T04:38:06.511Z,21.15
2022-07-30T04:43:08.627Z,21.16
2022-07-30T04:48:09.899Z,21.11
2022-07-30T04:53:11.216Z,21.13
2022-07-30T04:58:12.514Z,20.99
2022-07-30T05:03:13.887Z,21.18
2022-07-30T05:08:15.258Z,21.22
2022-07-30T05:13:16.507Z,21.27
2022-07-30T05:18:17.774Z,21.36
2022-07-30T05:23:19.033Z,21.30
2022-07-30T05:28:20.403Z,21.22
2022-07-30T05:33:21.667Z,20.20
2022-07-30T05:38:42.304Z,18.72
2022-07-30T05:43:43.646Z,18.86
2022-07-30T05:48:44.931Z,19.30
2022-07-30T05:53:46.256Z,19.57
2022-07-30T05:58:47.506Z,20.31
2022-07-30T06:03:48.841Z,20.33
2022-07-30T06:08:50.325Z,20.25
2022-07-30T06:13:51.861Z,20.26
2022-07-30T06:18:53.320Z,21.02
2022-07-30T06:23:54.833Z,21.17
2022-07-30T06:28:56.131Z,20.34
2022-07-30T06:33:57.698Z,19.86
2022-07-30T06:38:59.087Z,19.87
2022-07-30T06:44:00.367Z,20.24
2022-07-30T06:49:01.943Z,20.94
2022-07-30T06:54:03.325Z,20.44
2022-07-30T06:59:04.626Z,20.19
2022-07-30T07:04:05.955Z,20.19
2022-07-30T07:09:07.254Z,20.84
2022-07-30T07:14:08.878Z,21.28
2022-07-30T07:19:10.154Z,21.58
2022-07-30T07:24:14.835Z,21.58
2022-07-30T07:29:16.662Z,22.11
2022-07-30T07:34:17.985Z,22.35
2022-07-30T07:39:19.302Z,22.55
2022-07-30T07:44:20.602Z,22.02
2022-07-30T07:49:22.038Z,21.07
2022-07-30T07:54:23.539Z,21.25
2022-07-30T07:59:33.523Z,21.76
2022-07-30T08:04:41.811Z,21.60
2022-07-30T08:09:44.543Z,21.39
2022-07-30T08:14:46.515Z,20.76
2022-07-30T08:19:47.864Z,21.53
2022-07-30T08:24:49.159Z,21.07
2022-07-30T08:29:50.464Z,21.34
2022-07-30T08:34:51.717Z,21.22
2022-07-30T08:39:52.996Z,21.37
2022-07-30T08:44:57.329Z,21.23
2022-07-30T08:50:01.705Z,21.97
2022-07-30T08:55:03.024Z,21.82
2022-07-30T09:00:04.612Z,21.51
2022-07-30T09:05:05.972Z,21.46
2022-07-30T09:10:07.270Z,21.57
2022-07-30T09:15:08.566Z,21.58
2022-07-30T09:20:09.831Z,21.64
2022-07-30T09:25:11.178Z,21.86
2022-07-30T09:30:12.462Z,22.10
2022-07-30T09:35:14.322Z,22.26
2022-07-30T09:40:15.624Z,22.40
2022-07-30T09:45:16.935Z,23.04
2022-07-30T09:50:30.241Z,23.52
2022-07-30T09:55:32.104Z,23.27
2022-07-30T10:00:35.837Z,23.18
2022-07-30T10:05:37.925Z,22.81
2022-07-30T10:10:46.948Z,22.99
2022-07-30T10:15:49.237Z,22.15
2022-07-30T10:20:51.078Z,22.75
2022-07-30T10:25:55.201Z,23.11
2022-07-30T10:30:57.040Z,23.68
2022-07-30T10:36:04.454Z,23.66
2022-07-30T10:41:05.922Z,24.57
2022-07-30T10:46:07.470Z,25.04
2022-07-30T10:51:11.991Z,24.44
2022-07-30T10:56:26.683Z,24.75
2022-07-30T11:01:30.385Z,24.61
2022-07-30T11:06:31.987Z,25.13
2022-07-30T11:12:05.694Z,25.03
2022-07-30T11:16:54.570Z,24.72
2022-07-30T11:21:57.320Z,24.58
2022-07-30T11:26:58.625Z,24.25
2022-07-30T11:32:02.881Z,24.31
2022-07-30T11:37:18.024Z,24.78
2022-07-30T11:42:24.287Z,24.37
2022-07-30T11:47:25.579Z,24.13
2022-07-30T11:52:26.843Z,24.45
2022-07-30T11:57:28.107Z,25.48
2022-07-30T12:02:39.789Z,25.56
2022-07-30T12:07:41.070Z,25.53
2022-07-30T12:12:42.379Z,25.88
2022-07-30T12:17:43.706Z,26.31
2022-07-30T12:22:44.949Z,26.40
2022-07-30T12:27:52.000Z,25.94
2022-07-30T12:32:53.563Z,26.09
2022-07-30T12:37:54.858Z,25.68
2022-07-30T12:42:56.140Z,26.27
2022-07-30T12:47:57.687Z,25.84
2022-07-30T12:52:58.949Z,25.04
2022-07-30T12:58:05.406Z,24.40
2022-07-30T13:03:09.333Z,24.61
2022-07-30T13:08:10.645Z,25.23
2022-07-30T13:13:11.908Z,24.53
2022-07-30T13:18:13.170Z,24.24
2022-07-30T13:23:15.090Z,24.23
2022-07-30T13:28:16.354Z,24.20
2022-07-30T13:33:17.616Z,24.28
2022-07-30T13:38:18.889Z,24.54
2022-07-30T13:43:20.176Z,26.16
2022-07-30T13:48:21.475Z,26.88
2022-07-30T13:53:22.741Z,27.78
2022-07-30T13:58:23.987Z,27.91
2022-07-30T14:03:25.240Z,26.52
2022-07-30T14:08:28.578Z,26.18
2022-07-30T14:13:30.373Z,25.37
2022-07-30T14:18:32.159Z,25.43
2022-07-30T14:23:33.706Z,25.61
2022-07-30T14:28:34.967Z,26.12
2022-07-30T14:33:36.397Z,25.24
2022-07-30T14:38:39.814Z,24.45
2022-07-30T14:43:41.069Z,23.78
2022-07-30T14:48:42.389Z,23.51
2022-07-30T14:53:43.738Z,23.56
2022-07-30T14:58:48.697Z,23.45
2022-07-30T15:03:50.464Z,23.49
2022-07-30T15:08:51.722Z,23.82
2022-07-30T15:13:52.989Z,23.74
2022-07-30T15:18:54.287Z,23.88
2022-07-30T15:23:55.623Z,23.80
2022-07-30T15:28:57.017Z,24.12
2022-07-30T15:33:58.303Z,24.70
2022-07-30T15:38:59.565Z,25.51
2022-07-30T15:44:00.814Z,25.39
2022-07-30T15:49:02.646Z,26.01
2022-07-30T15:54:04.322Z,26.83
2022-07-30T15:59:05.611Z,26.75
2022-07-30T16:04:06.996Z,26.85
2022-07-30T16:09:21.126Z,26.03
2022-07-30T16:14:22.423Z,25.62
2022-07-30T16:19:23.791Z,25.95
2022-07-30T16:24:25.075Z,26.65
2022-07-30T16:29:26.323Z,27.06
2022-07-30T16:34:27.562Z,27.14
2022-07-30T16:39:28.838Z,26.74
2022-07-30T16:44:33.843Z,26.66
2022-07-30T16:49:35.140Z,26.58
2022-07-30T16:54:36.496Z,26.30
2022-07-30T16:59:37.964Z,25.85
2022-07-30T17:04:39.234Z,26.61
2022-07-30T17:09:40.572Z,26.54
2022-07-30T17:14:41.829Z,26.31
2022-07-30T17:19:43.147Z,25.92
2022-07-30T17:24:44.436Z,25.66
2022-07-30T17:29:50.406Z,25.78
2022-07-30T17:34:52.085Z,25.44
2022-07-30T17:40:24.749Z,25.14
2022-07-30T17:45:14.695Z,25.09
2022-07-30T17:50:16.058Z,24.90
2022-07-30T17:55:17.526Z,25.38
2022-07-30T18:00:18.811Z,24.94
2022-07-30T18:05:20.166Z,24.54
2022-07-30T18:10:21.458Z,24.75
2022-07-30T18:15:23.080Z,24.80
2022-07-30T18:20:24.342Z,24.65
2022-07-30T18:25:25.594Z,24.63
2022-07-30T18:30:26.858Z,24.49
2022-07-30T18:35:28.117Z,24.10
2022-07-30T18:40:29.373Z,24.26
2022-07-30T18:45:35.269Z,24.06
2022-07-30T18:50:38.251Z,24.04
2022-07-30T18:55:39.523Z,24.06
2022-07-30T19:00:43.316Z,23.96
2022-07-30T19:05:44.618Z,23.53
2022-07-30T19:10:45.873Z,22.98
2022-07-30T19:15:47.147Z,22.72
2022-07-30T19:20:50.587Z,22.52
2022-07-30T19:25:51.893Z,22.45
2022-07-30T19:30:53.376Z,22.38
2022-07-30T19:35:54.646Z,22.15
2022-07-30T19:40:56.116Z,22.22
2022-07-30T19:45:58.392Z,22.43
2022-07-30T19:51:00.870Z,22.77
2022-07-30T19:56:08.171Z,22.75
2022-07-30T20:01:12.156Z,22.29
2022-07-30T20:06:15.113Z,21.82
2022-07-30T20:11:21.144Z,22.23
2022-07-30T20:16:36.466Z,22.30
2022-07-30T20:21:54.217Z,22.23
2022-07-30T20:26:59.308Z,22.14
2022-07-30T20:32:00.649Z,21.95
2022-07-30T20:37:13.799Z,21.48
2022-07-30T20:42:23.603Z,21.66
2022-07-30T20:47:37.473Z,21.31
2022-07-30T20:52:40.393Z,21.20
2022-07-30T20:57:56.302Z,20.92
2022-07-30T21:03:03.141Z,20.94
2022-07-30T21:08:04.851Z,20.70
2022-07-30T21:13:07.494Z,20.00
2022-07-30T21:18:10.220Z,19.76
2022-07-30T21:23:11.655Z,20.37
2022-07-30T21:28:18.393Z,20.60
2022-07-30T21:33:31.622Z,20.68
2022-07-30T21:38:34.502Z,20.48
2022-07-30T21:43:35.980Z,20.17
2022-07-30T21:48:37.295Z,20.19
2022-07-30T21:53:46.290Z,20.05
2022-07-30T21:58:48.517Z,20.29
2022-07-30T22:04:03.579Z,19.64
2022-07-30T22:09:18.184Z,20.00
2022-07-30T22:14:20.997Z,19.97
2022-07-30T22:19:22.306Z,20.11
2022-07-30T22:24:29.705Z,20.09
2022-07-30T22:29:34.245Z,20.07
2022-07-30T22:34:36.018Z,19.93
2022-07-30T22:39:50.667Z,19.72
2022-07-30T22:44:54.706Z,19.79
2022-07-30T22:49:58.285Z,19.44
2022-07-30T22:55:09.318Z,19.35
2022-07-30T23:00:12.289Z,19.43
2022-07-30T23:05:13.677Z,19.28
2022-07-30T23:10:17.801Z,19.11
2022-07-30T23:15:19.851Z,19.29
2022-07-30T23:20:21.258Z,19.41
2022-07-30T23:25:22.941Z,19.25
2022-07-30T23:30:25.127Z,18.64
2022-07-30T23:35:33.296Z,18.37
2022-07-30T23:40:34.602Z,18.69
2022-07-30T23:45:35.841Z,18.73
2022-07-30T23:50:37.098Z,18.87
2022-07-30T23:55:38.619Z,18.60
